Terminal Aerodrome Forecast
Issued by NWS Upton, NY

Home | Current Version | Previous Version | Text Only | Print | Product List | Glossary On
Versions: 1 2 3 4 5 6 7 8 9 10 11 12 13 14 15 16 17 18 19 20 21 22 23 24 25 26 27 28 29 30 31 32 33 34
000
FTUS41 KOKX 230353 AAE
TAFEWR
TAF AMD
KEWR 230353Z 2304/2406 22014G23KT 6SM -SHRA VCTS SCT020 BKN050CB
      TEMPO 2304/2305 4SM TSRA
     FM230500 22014G23KT 6SM -SHRA SCT020 BKN050
      TEMPO 2305/2307 5SM -SHRA BKN020
     FM230700 24011KT P6SM VCSH SCT025 BKN050
     FM231000 27007KT P6SM FEW020 BKN100
     FM231300 31010KT P6SM SCT040
     FM231700 29010KT P6SM BKN250
     FM240100 32007KT P6SM SKC=

USA.gov is the U.S. government's official web portal to all federal, state and local government web resources and services.